<?xml version="1.0" encoding="UTF-8" standalone="no" ?><gpx xmlns="http://www.topografix.com/GPX/1/1" xmlns:gpxx="http://www.garmin.com/xmlschemas/GpxExtensions/v3" xmlns:wptx1="http://www.garmin.com/xmlschemas/WaypointExtension/v1" xmlns:gpxtpx="http://www.garmin.com/xmlschemas/TrackPointExtension/v1" creator="GuideVTT.com" version="1.1" xmlns:xsi="http://www.w3.org/2001/XMLSchema-instance" xsi:schemaLocation="http://www.topografix.com/GPX/1/1 http://www.topografix.com/GPX/1/1/gpx.xsd http://www.garmin.com/xmlschemas/GpxExtensions/v3 http://www8.garmin.com/xmlschemas/GpxExtensionsv3.xsd http://www.garmin.com/xmlschemas/WaypointExtension/v1 http://www8.garmin.com/xmlschemas/WaypointExtensionv1.xsd http://www.garmin.com/xmlschemas/TrackPointExtension/v1 http://www.garmin.com/xmlschemas/TrackPointExtensionv1.xsd">
<metadata><link href="http://www.garmin.com"><text>Garmin International</text></link><time>2013-06-22T15:13:50Z</time></metadata>
<trk><name>ch_gobet_km10.gpx</name><extensions><gpxx:TrackExtension><gpxx:DisplayColor>Cyan</gpxx:DisplayColor></gpxx:TrackExtension></extensions><trkseg>
<trkpt lat="46.564491" lon="6.689647"><ele></ele><time>2014-4-13T17:19:20Z</time></trkpt>
<trkpt lat="46.564483" lon="6.689513"><ele></ele><time>2014-4-13T17:19:23Z</time></trkpt>
<trkpt lat="46.564458" lon="6.689414"><ele></ele><time>2014-4-13T17:19:26Z</time></trkpt>
<trkpt lat="46.564527" lon="6.689339"><ele></ele><time>2014-4-13T17:19:29Z</time></trkpt>
<trkpt lat="46.564561" lon="6.689238"><ele></ele><time>2014-4-13T17:19:32Z</time></trkpt>
<trkpt lat="46.564554" lon="6.688853"><ele></ele><time>2014-4-13T17:19:35Z</time></trkpt>
<trkpt lat="46.564506" lon="6.688490"><ele></ele><time>2014-4-13T17:19:38Z</time></trkpt>
<trkpt lat="46.564395" lon="6.688015"><ele></ele><time>2014-4-13T17:19:41Z</time></trkpt>
<trkpt lat="46.564248" lon="6.687531"><ele></ele><time>2014-4-13T17:19:44Z</time></trkpt>
<trkpt lat="46.564177" lon="6.687321"><ele></ele><time>2014-4-13T17:19:47Z</time></trkpt>
<trkpt lat="46.564208" lon="6.686998"><ele></ele><time>2014-4-13T17:19:50Z</time></trkpt>
<trkpt lat="46.564215" lon="6.686876"><ele></ele><time>2014-4-13T17:19:53Z</time></trkpt>
<trkpt lat="46.564205" lon="6.686734"><ele></ele><time>2014-4-13T17:19:56Z</time></trkpt>
<trkpt lat="46.564187" lon="6.686628"><ele></ele><time>2014-4-13T17:19:59Z</time></trkpt>
<trkpt lat="46.564171" lon="6.686555"><ele></ele><time>2014-4-13T17:20:2Z</time></trkpt>
<trkpt lat="46.564158" lon="6.686491"><ele></ele><time>2014-4-13T17:20:5Z</time></trkpt>
<trkpt lat="46.564141" lon="6.686367"><ele></ele><time>2014-4-13T17:20:8Z</time></trkpt>
<trkpt lat="46.564145" lon="6.686289"><ele></ele><time>2014-4-13T17:20:11Z</time></trkpt>
<trkpt lat="46.564150" lon="6.686154"><ele></ele><time>2014-4-13T17:20:14Z</time></trkpt>
<trkpt lat="46.564165" lon="6.685996"><ele></ele><time>2014-4-13T17:20:17Z</time></trkpt>
<trkpt lat="46.564168" lon="6.685860"><ele></ele><time>2014-4-13T17:20:20Z</time></trkpt>
<trkpt lat="46.564186" lon="6.685742"><ele></ele><time>2014-4-13T17:20:23Z</time></trkpt>
<trkpt lat="46.564192" lon="6.685601"><ele></ele><time>2014-4-13T17:20:26Z</time></trkpt>
<trkpt lat="46.564200" lon="6.685440"><ele></ele><time>2014-4-13T17:20:29Z</time></trkpt>
<trkpt lat="46.564211" lon="6.685271"><ele></ele><time>2014-4-13T17:20:32Z</time></trkpt>
<trkpt lat="46.564220" lon="6.685010"><ele></ele><time>2014-4-13T17:20:35Z</time></trkpt>
<trkpt lat="46.564252" lon="6.684694"><ele></ele><time>2014-4-13T17:20:38Z</time></trkpt>
<trkpt lat="46.564300" lon="6.684220"><ele></ele><time>2014-4-13T17:20:41Z</time></trkpt>
<trkpt lat="46.564320" lon="6.684022"><ele></ele><time>2014-4-13T17:20:44Z</time></trkpt>
<trkpt lat="46.564319" lon="6.683973"><ele></ele><time>2014-4-13T17:20:47Z</time></trkpt>
<trkpt lat="46.564394" lon="6.683876"><ele></ele><time>2014-4-13T17:20:50Z</time></trkpt>
<trkpt lat="46.564441" lon="6.683919"><ele></ele><time>2014-4-13T17:20:53Z</time></trkpt>
<trkpt lat="46.564613" lon="6.684127"><ele></ele><time>2014-4-13T17:20:56Z</time></trkpt>
<trkpt lat="46.564745" lon="6.684265"><ele></ele><time>2014-4-13T17:20:59Z</time></trkpt>
<trkpt lat="46.564930" lon="6.684425"><ele></ele><time>2014-4-13T17:21:2Z</time></trkpt>
<trkpt lat="46.565063" lon="6.684503"><ele></ele><time>2014-4-13T17:21:5Z</time></trkpt>
<trkpt lat="46.565200" lon="6.684600"><ele></ele><time>2014-4-13T17:21:8Z</time></trkpt>
<trkpt lat="46.565259" lon="6.684491"><ele></ele><time>2014-4-13T17:21:11Z</time></trkpt>
<trkpt lat="46.565210" lon="6.684268"><ele></ele><time>2014-4-13T17:21:14Z</time></trkpt>
<trkpt lat="46.565136" lon="6.683881"><ele></ele><time>2014-4-13T17:21:17Z</time></trkpt>
<trkpt lat="46.565054" lon="6.683448"><ele></ele><time>2014-4-13T17:21:20Z</time></trkpt>
<trkpt lat="46.564987" lon="6.683058"><ele></ele><time>2014-4-13T17:21:23Z</time></trkpt>
<trkpt lat="46.564969" lon="6.682921"><ele></ele><time>2014-4-13T17:21:26Z</time></trkpt>
<trkpt lat="46.564897" lon="6.682571"><ele></ele><time>2014-4-13T17:21:29Z</time></trkpt>
<trkpt lat="46.564812" lon="6.682042"><ele></ele><time>2014-4-13T17:21:32Z</time></trkpt>
<trkpt lat="46.564735" lon="6.681510"><ele></ele><time>2014-4-13T17:21:35Z</time></trkpt>
<trkpt lat="46.564646" lon="6.681028"><ele></ele><time>2014-4-13T17:21:38Z</time></trkpt>
<trkpt lat="46.564616" lon="6.680811"><ele></ele><time>2014-4-13T17:21:41Z</time></trkpt>
<trkpt lat="46.564603" lon="6.680617"><ele></ele><time>2014-4-13T17:21:44Z</time></trkpt>
<trkpt lat="46.564778" lon="6.680314"><ele></ele><time>2014-4-13T17:21:47Z</time></trkpt>
<trkpt lat="46.564896" lon="6.680127"><ele></ele><time>2014-4-13T17:21:50Z</time></trkpt>
<trkpt lat="46.565095" lon="6.679719"><ele></ele><time>2014-4-13T17:21:53Z</time></trkpt>
<trkpt lat="46.565467" lon="6.679295"><ele></ele><time>2014-4-13T17:21:56Z</time></trkpt>
<trkpt lat="46.565781" lon="6.678985"><ele></ele><time>2014-4-13T17:21:59Z</time></trkpt>
<trkpt lat="46.566093" lon="6.678909"><ele></ele><time>2014-4-13T17:22:2Z</time></trkpt>
<trkpt lat="46.566517" lon="6.678630"><ele></ele><time>2014-4-13T17:22:5Z</time></trkpt>
<trkpt lat="46.566646" lon="6.678525"><ele></ele><time>2014-4-13T17:22:8Z</time></trkpt>
<trkpt lat="46.566845" lon="6.678230"><ele></ele><time>2014-4-13T17:22:11Z</time></trkpt>
<trkpt lat="46.566998" lon="6.677832"><ele></ele><time>2014-4-13T17:22:14Z</time></trkpt>
<trkpt lat="46.567013" lon="6.677778"><ele></ele><time>2014-4-13T17:22:17Z</time></trkpt>
<trkpt lat="46.567146" lon="6.677558"><ele></ele><time>2014-4-13T17:22:20Z</time></trkpt>
<trkpt lat="46.567211" lon="6.677464"><ele></ele><time>2014-4-13T17:22:23Z</time></trkpt>
<trkpt lat="46.567290" lon="6.677373"><ele></ele><time>2014-4-13T17:22:26Z</time></trkpt>
<trkpt lat="46.567491" lon="6.677178"><ele></ele><time>2014-4-13T17:22:29Z</time></trkpt>
<trkpt lat="46.567643" lon="6.677121"><ele></ele><time>2014-4-13T17:22:32Z</time></trkpt>
<trkpt lat="46.567876" lon="6.677075"><ele></ele><time>2014-4-13T17:22:35Z</time></trkpt>
<trkpt lat="46.567994" lon="6.677088"><ele></ele><time>2014-4-13T17:22:38Z</time></trkpt>
<trkpt lat="46.568138" lon="6.677051"><ele></ele><time>2014-4-13T17:22:41Z</time></trkpt>
<trkpt lat="46.568257" lon="6.677026"><ele></ele><time>2014-4-13T17:22:44Z</time></trkpt>
<trkpt lat="46.568361" lon="6.677015"><ele></ele><time>2014-4-13T17:22:47Z</time></trkpt>
<trkpt lat="46.568535" lon="6.676986"><ele></ele><time>2014-4-13T17:22:50Z</time></trkpt>
<trkpt lat="46.568687" lon="6.676958"><ele></ele><time>2014-4-13T17:22:53Z</time></trkpt>
<trkpt lat="46.568859" lon="6.676930"><ele></ele><time>2014-4-13T17:22:56Z</time></trkpt>
<trkpt lat="46.569012" lon="6.676903"><ele></ele><time>2014-4-13T17:22:59Z</time></trkpt>
<trkpt lat="46.569189" lon="6.676877"><ele></ele><time>2014-4-13T17:23:2Z</time></trkpt>
<trkpt lat="46.569379" lon="6.676828"><ele></ele><time>2014-4-13T17:23:5Z</time></trkpt>
<trkpt lat="46.569565" lon="6.676779"><ele></ele><time>2014-4-13T17:23:8Z</time></trkpt>
<trkpt lat="46.569774" lon="6.676766"><ele></ele><time>2014-4-13T17:23:11Z</time></trkpt>
<trkpt lat="46.569994" lon="6.676770"><ele></ele><time>2014-4-13T17:23:14Z</time></trkpt>
<trkpt lat="46.570272" lon="6.676777"><ele></ele><time>2014-4-13T17:23:17Z</time></trkpt>
<trkpt lat="46.570521" lon="6.676780"><ele></ele><time>2014-4-13T17:23:20Z</time></trkpt>
<trkpt lat="46.570698" lon="6.676756"><ele></ele><time>2014-4-13T17:23:23Z</time></trkpt>
<trkpt lat="46.570922" lon="6.676741"><ele></ele><time>2014-4-13T17:23:26Z</time></trkpt>
<trkpt lat="46.571136" lon="6.676723"><ele></ele><time>2014-4-13T17:23:29Z</time></trkpt>
<trkpt lat="46.571303" lon="6.676701"><ele></ele><time>2014-4-13T17:23:32Z</time></trkpt>
<trkpt lat="46.571428" lon="6.676688"><ele></ele><time>2014-4-13T17:23:35Z</time></trkpt>
<trkpt lat="46.571562" lon="6.676656"><ele></ele><time>2014-4-13T17:23:38Z</time></trkpt>
<trkpt lat="46.571729" lon="6.676577"><ele></ele><time>2014-4-13T17:23:41Z</time></trkpt>
<trkpt lat="46.571891" lon="6.676501"><ele></ele><time>2014-4-13T17:23:44Z</time></trkpt>
<trkpt lat="46.572167" lon="6.676450"><ele></ele><time>2014-4-13T17:23:47Z</time></trkpt>
<trkpt lat="46.572368" lon="6.676512"><ele></ele><time>2014-4-13T17:23:50Z</time></trkpt>
<trkpt lat="46.572606" lon="6.676605"><ele></ele><time>2014-4-13T17:23:53Z</time></trkpt>
<trkpt lat="46.572690" lon="6.676656"><ele></ele><time>2014-4-13T17:23:56Z</time></trkpt>
<trkpt lat="46.572778" lon="6.676712"><ele></ele><time>2014-4-13T17:23:59Z</time></trkpt>
<trkpt lat="46.572869" lon="6.676759"><ele></ele><time>2014-4-13T17:24:2Z</time></trkpt>
<trkpt lat="46.573068" lon="6.676827"><ele></ele><time>2014-4-13T17:24:5Z</time></trkpt>
<trkpt lat="46.573486" lon="6.676867"><ele></ele><time>2014-4-13T17:24:8Z</time></trkpt>
<trkpt lat="46.573761" lon="6.676882"><ele></ele><time>2014-4-13T17:24:11Z</time></trkpt>
<trkpt lat="46.573926" lon="6.676864"><ele></ele><time>2014-4-13T17:24:14Z</time></trkpt>
<trkpt lat="46.573970" lon="6.676864"><ele></ele><time>2014-4-13T17:24:17Z</time></trkpt>
<trkpt lat="46.574186" lon="6.676823"><ele></ele><time>2014-4-13T17:24:20Z</time></trkpt>
<trkpt lat="46.574384" lon="6.676810"><ele></ele><time>2014-4-13T17:24:23Z</time></trkpt>
<trkpt lat="46.574625" lon="6.676906"><ele></ele><time>2014-4-13T17:24:26Z</time></trkpt>
<trkpt lat="46.574849" lon="6.677102"><ele></ele><time>2014-4-13T17:24:29Z</time></trkpt>
<trkpt lat="46.574884" lon="6.677133"><ele></ele><time>2014-4-13T17:24:32Z</time></trkpt>
<trkpt lat="46.575181" lon="6.677318"><ele></ele><time>2014-4-13T17:24:35Z</time></trkpt>
<trkpt lat="46.575262" lon="6.677376"><ele></ele><time>2014-4-13T17:24:38Z</time></trkpt>
<trkpt lat="46.575461" lon="6.677572"><ele></ele><time>2014-4-13T17:24:41Z</time></trkpt>
<trkpt lat="46.575732" lon="6.677835"><ele></ele><time>2014-4-13T17:24:44Z</time></trkpt>
<trkpt lat="46.575814" lon="6.677913"><ele></ele><time>2014-4-13T17:24:47Z</time></trkpt>
<trkpt lat="46.576028" lon="6.678157"><ele></ele><time>2014-4-13T17:24:50Z</time></trkpt>
<trkpt lat="46.576185" lon="6.678284"><ele></ele><time>2014-4-13T17:24:53Z</time></trkpt>
<trkpt lat="46.576276" lon="6.678347"><ele></ele><time>2014-4-13T17:24:56Z</time></trkpt>
<trkpt lat="46.576419" lon="6.678456"><ele></ele><time>2014-4-13T17:24:59Z</time></trkpt>
<trkpt lat="46.576567" lon="6.678541"><ele></ele><time>2014-4-13T17:25:2Z</time></trkpt>
<trkpt lat="46.576798" lon="6.678691"><ele></ele><time>2014-4-13T17:25:5Z</time></trkpt>
<trkpt lat="46.576964" lon="6.678844"><ele></ele><time>2014-4-13T17:25:8Z</time></trkpt>
<trkpt lat="46.577091" lon="6.679023"><ele></ele><time>2014-4-13T17:25:11Z</time></trkpt>
<trkpt lat="46.577246" lon="6.679286"><ele></ele><time>2014-4-13T17:25:14Z</time></trkpt>
<trkpt lat="46.577473" lon="6.679473"><ele></ele><time>2014-4-13T17:25:17Z</time></trkpt>
<trkpt lat="46.577609" lon="6.679560"><ele></ele><time>2014-4-13T17:25:20Z</time></trkpt>
<trkpt lat="46.577811" lon="6.679637"><ele></ele><time>2014-4-13T17:25:23Z</time></trkpt>
<trkpt lat="46.577864" lon="6.679657"><ele></ele><time>2014-4-13T17:25:26Z</time></trkpt>
<trkpt lat="46.578212" lon="6.679711"><ele></ele><time>2014-4-13T17:25:29Z</time></trkpt>
<trkpt lat="46.578252" lon="6.679624"><ele></ele><time>2014-4-13T17:25:32Z</time></trkpt>
<trkpt lat="46.578193" lon="6.679530"><ele></ele><time>2014-4-13T17:25:35Z</time></trkpt>
<trkpt lat="46.578164" lon="6.679507"><ele></ele><time>2014-4-13T17:25:38Z</time></trkpt>
<trkpt lat="46.578088" lon="6.679380"><ele></ele><time>2014-4-13T17:25:41Z</time></trkpt>
<trkpt lat="46.578028" lon="6.679290"><ele></ele><time>2014-4-13T17:25:44Z</time></trkpt>
<trkpt lat="46.577967" lon="6.679195"><ele></ele><time>2014-4-13T17:25:47Z</time></trkpt>
<trkpt lat="46.577921" lon="6.679129"><ele></ele><time>2014-4-13T17:25:50Z</time></trkpt>
<trkpt lat="46.577884" lon="6.679058"><ele></ele><time>2014-4-13T17:25:53Z</time></trkpt>
<trkpt lat="46.577847" lon="6.678955"><ele></ele><time>2014-4-13T17:25:56Z</time></trkpt>
<trkpt lat="46.577800" lon="6.678818"><ele></ele><time>2014-4-13T17:25:59Z</time></trkpt>
<trkpt lat="46.577780" lon="6.678730"><ele></ele><time>2014-4-13T17:26:2Z</time></trkpt>
<trkpt lat="46.577691" lon="6.678573"><ele></ele><time>2014-4-13T17:26:5Z</time></trkpt>
<trkpt lat="46.577584" lon="6.678447"><ele></ele><time>2014-4-13T17:26:8Z</time></trkpt>
<trkpt lat="46.577484" lon="6.678317"><ele></ele><time>2014-4-13T17:26:11Z</time></trkpt>
<trkpt lat="46.577381" lon="6.678219"><ele></ele><time>2014-4-13T17:26:14Z</time></trkpt>
<trkpt lat="46.577285" lon="6.678096"><ele></ele><time>2014-4-13T17:26:17Z</time></trkpt>
<trkpt lat="46.577152" lon="6.677963"><ele></ele><time>2014-4-13T17:26:20Z</time></trkpt>
<trkpt lat="46.577021" lon="6.677847"><ele></ele><time>2014-4-13T17:26:23Z</time></trkpt>
<trkpt lat="46.576894" lon="6.677735"><ele></ele><time>2014-4-13T17:26:26Z</time></trkpt>
<trkpt lat="46.576798" lon="6.677655"><ele></ele><time>2014-4-13T17:26:29Z</time></trkpt>
<trkpt lat="46.576667" lon="6.677493"><ele></ele><time>2014-4-13T17:26:32Z</time></trkpt>
<trkpt lat="46.576498" lon="6.677218"><ele></ele><time>2014-4-13T17:26:35Z</time></trkpt>
<trkpt lat="46.576268" lon="6.676886"><ele></ele><time>2014-4-13T17:26:38Z</time></trkpt>
<trkpt lat="46.576111" lon="6.676682"><ele></ele><time>2014-4-13T17:26:41Z</time></trkpt>
<trkpt lat="46.576001" lon="6.676556"><ele></ele><time>2014-4-13T17:26:44Z</time></trkpt>
<trkpt lat="46.575984" lon="6.676521"><ele></ele><time>2014-4-13T17:26:47Z</time></trkpt>
<trkpt lat="46.576046" lon="6.676459"><ele></ele><time>2014-4-13T17:26:50Z</time></trkpt>
<trkpt lat="46.576195" lon="6.676454"><ele></ele><time>2014-4-13T17:26:53Z</time></trkpt>
<trkpt lat="46.576339" lon="6.676412"><ele></ele><time>2014-4-13T17:26:56Z</time></trkpt>
<trkpt lat="46.576565" lon="6.676291"><ele></ele><time>2014-4-13T17:26:59Z</time></trkpt>
<trkpt lat="46.576757" lon="6.676249"><ele></ele><time>2014-4-13T17:27:2Z</time></trkpt>
<trkpt lat="46.576932" lon="6.676258"><ele></ele><time>2014-4-13T17:27:5Z</time></trkpt>
<trkpt lat="46.577147" lon="6.676303"><ele></ele><time>2014-4-13T17:27:8Z</time></trkpt>
<trkpt lat="46.577305" lon="6.676362"><ele></ele><time>2014-4-13T17:27:11Z</time></trkpt>
<trkpt lat="46.577449" lon="6.676424"><ele></ele><time>2014-4-13T17:27:14Z</time></trkpt>
<trkpt lat="46.577633" lon="6.676475"><ele></ele><time>2014-4-13T17:27:17Z</time></trkpt>
<trkpt lat="46.577746" lon="6.676516"><ele></ele><time>2014-4-13T17:27:20Z</time></trkpt>
<trkpt lat="46.577843" lon="6.676549"><ele></ele><time>2014-4-13T17:27:23Z</time></trkpt>
<trkpt lat="46.577906" lon="6.676565"><ele></ele><time>2014-4-13T17:27:26Z</time></trkpt>
<trkpt lat="46.577970" lon="6.676581"><ele></ele><time>2014-4-13T17:27:29Z</time></trkpt>
<trkpt lat="46.578168" lon="6.676639"><ele></ele><time>2014-4-13T17:27:32Z</time></trkpt>
<trkpt lat="46.578312" lon="6.676763"><ele></ele><time>2014-4-13T17:27:35Z</time></trkpt>
<trkpt lat="46.578362" lon="6.676843"><ele></ele><time>2014-4-13T17:27:38Z</time></trkpt>
<trkpt lat="46.578576" lon="6.677220"><ele></ele><time>2014-4-13T17:27:41Z</time></trkpt>
<trkpt lat="46.578632" lon="6.677323"><ele></ele><time>2014-4-13T17:27:44Z</time></trkpt>
<trkpt lat="46.578757" lon="6.677525"><ele></ele><time>2014-4-13T17:27:47Z</time></trkpt>
<trkpt lat="46.578920" lon="6.677783"><ele></ele><time>2014-4-13T17:27:50Z</time></trkpt>
<trkpt lat="46.579046" lon="6.678007"><ele></ele><time>2014-4-13T17:27:53Z</time></trkpt>
<trkpt lat="46.579182" lon="6.678231"><ele></ele><time>2014-4-13T17:27:56Z</time></trkpt>
<trkpt lat="46.579327" lon="6.678436"><ele></ele><time>2014-4-13T17:27:59Z</time></trkpt>
<trkpt lat="46.579390" lon="6.678550"><ele></ele><time>2014-4-13T17:28:2Z</time></trkpt>
<trkpt lat="46.579496" lon="6.678692"><ele></ele><time>2014-4-13T17:28:5Z</time></trkpt>
<trkpt lat="46.579611" lon="6.678859"><ele></ele><time>2014-4-13T17:28:8Z</time></trkpt>
<trkpt lat="46.579828" lon="6.679228"><ele></ele><time>2014-4-13T17:28:11Z</time></trkpt>
<trkpt lat="46.580017" lon="6.679509"><ele></ele><time>2014-4-13T17:28:14Z</time></trkpt>
<trkpt lat="46.580104" lon="6.679775"><ele></ele><time>2014-4-13T17:28:17Z</time></trkpt>
<trkpt lat="46.580036" lon="6.680241"><ele></ele><time>2014-4-13T17:28:20Z</time></trkpt>
<trkpt lat="46.579848" lon="6.680741"><ele></ele><time>2014-4-13T17:28:23Z</time></trkpt>
<trkpt lat="46.579945" lon="6.680906"><ele></ele><time>2014-4-13T17:28:26Z</time></trkpt>
<trkpt lat="46.579974" lon="6.680968"><ele></ele><time>2014-4-13T17:28:29Z</time></trkpt>
<trkpt lat="46.580072" lon="6.681163"><ele></ele><time>2014-4-13T17:28:32Z</time></trkpt>
<trkpt lat="46.580164" lon="6.681486"><ele></ele><time>2014-4-13T17:28:35Z</time></trkpt>
<trkpt lat="46.580306" lon="6.681674"><ele></ele><time>2014-4-13T17:28:38Z</time></trkpt>
<trkpt lat="46.580464" lon="6.681628"><ele></ele><time>2014-4-13T17:28:41Z</time></trkpt>
<trkpt lat="46.580505" lon="6.681590"><ele></ele><time>2014-4-13T17:28:44Z</time></trkpt>
<trkpt lat="46.580643" lon="6.681421"><ele></ele><time>2014-4-13T17:28:47Z</time></trkpt>
<trkpt lat="46.580891" lon="6.681168"><ele></ele><time>2014-4-13T17:28:50Z</time></trkpt>
<trkpt lat="46.581104" lon="6.680940"><ele></ele><time>2014-4-13T17:28:53Z</time></trkpt>
<trkpt lat="46.581303" lon="6.680726"><ele></ele><time>2014-4-13T17:28:56Z</time></trkpt>
<trkpt lat="46.581523" lon="6.680489"><ele></ele><time>2014-4-13T17:28:59Z</time></trkpt>
<trkpt lat="46.581603" lon="6.680423"><ele></ele><time>2014-4-13T17:29:2Z</time></trkpt>
<trkpt lat="46.581720" lon="6.680323"><ele></ele><time>2014-4-13T17:29:5Z</time></trkpt>
<trkpt lat="46.581884" lon="6.680111"><ele></ele><time>2014-4-13T17:29:8Z</time></trkpt>
<trkpt lat="46.582035" lon="6.679969"><ele></ele><time>2014-4-13T17:29:11Z</time></trkpt>
<trkpt lat="46.582220" lon="6.679804"><ele></ele><time>2014-4-13T17:29:14Z</time></trkpt>
<trkpt lat="46.582349" lon="6.679742"><ele></ele><time>2014-4-13T17:29:17Z</time></trkpt>
<trkpt lat="46.582485" lon="6.679642"><ele></ele><time>2014-4-13T17:29:20Z</time></trkpt>
<trkpt lat="46.582693" lon="6.679508"><ele></ele><time>2014-4-13T17:29:23Z</time></trkpt>
<trkpt lat="46.582825" lon="6.679378"><ele></ele><time>2014-4-13T17:29:26Z</time></trkpt>
<trkpt lat="46.583004" lon="6.679251"><ele></ele><time>2014-4-13T17:29:29Z</time></trkpt>
<trkpt lat="46.583271" lon="6.679159"><ele></ele><time>2014-4-13T17:29:32Z</time></trkpt>
<trkpt lat="46.583498" lon="6.679244"><ele></ele><time>2014-4-13T17:29:35Z</time></trkpt>
<trkpt lat="46.583678" lon="6.679309"><ele></ele><time>2014-4-13T17:29:38Z</time></trkpt>
<trkpt lat="46.583909" lon="6.679343"><ele></ele><time>2014-4-13T17:29:41Z</time></trkpt>
<trkpt lat="46.584125" lon="6.679323"><ele></ele><time>2014-4-13T17:29:44Z</time></trkpt>
<trkpt lat="46.584262" lon="6.679246"><ele></ele><time>2014-4-13T17:29:47Z</time></trkpt>
<trkpt lat="46.584420" lon="6.679128"><ele></ele><time>2014-4-13T17:29:50Z</time></trkpt>
<trkpt lat="46.584551" lon="6.678989"><ele></ele><time>2014-4-13T17:29:53Z</time></trkpt>
<trkpt lat="46.584747" lon="6.678699"><ele></ele><time>2014-4-13T17:29:56Z</time></trkpt>
<trkpt lat="46.584890" lon="6.678493"><ele></ele><time>2014-4-13T17:29:59Z</time></trkpt>
<trkpt lat="46.585065" lon="6.678313"><ele></ele><time>2014-4-13T17:30:2Z</time></trkpt>
<trkpt lat="46.585085" lon="6.678299"><ele></ele><time>2014-4-13T17:30:5Z</time></trkpt>
<trkpt lat="46.585142" lon="6.678379"><ele></ele><time>2014-4-13T17:30:8Z</time></trkpt>
<trkpt lat="46.585137" lon="6.678422"><ele></ele><time>2014-4-13T17:30:11Z</time></trkpt>
<trkpt lat="46.585158" lon="6.678687"><ele></ele><time>2014-4-13T17:30:14Z</time></trkpt>
<trkpt lat="46.585305" lon="6.678843"><ele></ele><time>2014-4-13T17:30:17Z</time></trkpt>
<trkpt lat="46.585440" lon="6.678959"><ele></ele><time>2014-4-13T17:30:20Z</time></trkpt>
<trkpt lat="46.585624" lon="6.679156"><ele></ele><time>2014-4-13T17:30:23Z</time></trkpt>
<trkpt lat="46.585782" lon="6.679458"><ele></ele><time>2014-4-13T17:30:26Z</time></trkpt>
<trkpt lat="46.585839" lon="6.679758"><ele></ele><time>2014-4-13T17:30:29Z</time></trkpt>
<trkpt lat="46.585767" lon="6.679936"><ele></ele><time>2014-4-13T17:30:32Z</time></trkpt>
<trkpt lat="46.585613" lon="6.680069"><ele></ele><time>2014-4-13T17:30:35Z</time></trkpt>
<trkpt lat="46.585140" lon="6.680250"><ele></ele><time>2014-4-13T17:30:38Z</time></trkpt>
<trkpt lat="46.585067" lon="6.680277"><ele></ele><time>2014-4-13T17:30:41Z</time></trkpt>
<trkpt lat="46.584799" lon="6.680397"><ele></ele><time>2014-4-13T17:30:44Z</time></trkpt>
<trkpt lat="46.584555" lon="6.680602"><ele></ele><time>2014-4-13T17:30:47Z</time></trkpt>
<trkpt lat="46.584219" lon="6.680908"><ele></ele><time>2014-4-13T17:30:50Z</time></trkpt>
<trkpt lat="46.583993" lon="6.680933"><ele></ele><time>2014-4-13T17:30:53Z</time></trkpt>
<trkpt lat="46.583861" lon="6.680924"><ele></ele><time>2014-4-13T17:30:56Z</time></trkpt>
<trkpt lat="46.583575" lon="6.681071"><ele></ele><time>2014-4-13T17:30:59Z</time></trkpt>
<trkpt lat="46.583287" lon="6.681329"><ele></ele><time>2014-4-13T17:31:2Z</time></trkpt>
<trkpt lat="46.583116" lon="6.681566"><ele></ele><time>2014-4-13T17:31:5Z</time></trkpt>
<trkpt lat="46.583016" lon="6.681736"><ele></ele><time>2014-4-13T17:31:8Z</time></trkpt>
<trkpt lat="46.583101" lon="6.681891"><ele></ele><time>2014-4-13T17:31:11Z</time></trkpt>
<trkpt lat="46.583248" lon="6.681915"><ele></ele><time>2014-4-13T17:31:14Z</time></trkpt>
<trkpt lat="46.583403" lon="6.681923"><ele></ele><time>2014-4-13T17:31:17Z</time></trkpt>
<trkpt lat="46.583676" lon="6.681974"><ele></ele><time>2014-4-13T17:31:20Z</time></trkpt>
<trkpt lat="46.584031" lon="6.682030"><ele></ele><time>2014-4-13T17:31:23Z</time></trkpt>
<trkpt lat="46.584526" lon="6.682086"><ele></ele><time>2014-4-13T17:31:26Z</time></trkpt>
<trkpt lat="46.584694" lon="6.682111"><ele></ele><time>2014-4-13T17:31:29Z</time></trkpt>
<trkpt lat="46.584931" lon="6.682116"><ele></ele><time>2014-4-13T17:31:32Z</time></trkpt>
<trkpt lat="46.585101" lon="6.682125"><ele></ele><time>2014-4-13T17:31:35Z</time></trkpt>
<trkpt lat="46.585373" lon="6.682174"><ele></ele><time>2014-4-13T17:31:38Z</time></trkpt>
<trkpt lat="46.585442" lon="6.682184"><ele></ele><time>2014-4-13T17:31:41Z</time></trkpt>
<trkpt lat="46.585609" lon="6.682205"><ele></ele><time>2014-4-13T17:31:44Z</time></trkpt>
<trkpt lat="46.585784" lon="6.682256"><ele></ele><time>2014-4-13T17:31:47Z</time></trkpt>
<trkpt lat="46.585930" lon="6.682316"><ele></ele><time>2014-4-13T17:31:50Z</time></trkpt>
<trkpt lat="46.586022" lon="6.682361"><ele></ele><time>2014-4-13T17:31:53Z</time></trkpt>
<trkpt lat="46.586326" lon="6.682533"><ele></ele><time>2014-4-13T17:31:56Z</time></trkpt>
<trkpt lat="46.586580" lon="6.682655"><ele></ele><time>2014-4-13T17:31:59Z</time></trkpt>
<trkpt lat="46.586730" lon="6.682677"><ele></ele><time>2014-4-13T17:32:2Z</time></trkpt>
<trkpt lat="46.586934" lon="6.682637"><ele></ele><time>2014-4-13T17:32:5Z</time></trkpt>
<trkpt lat="46.587138" lon="6.682592"><ele></ele><time>2014-4-13T17:32:8Z</time></trkpt>
<trkpt lat="46.587273" lon="6.682556"><ele></ele><time>2014-4-13T17:32:11Z</time></trkpt>
<trkpt lat="46.587499" lon="6.682495"><ele></ele><time>2014-4-13T17:32:14Z</time></trkpt>
<trkpt lat="46.587682" lon="6.682472"><ele></ele><time>2014-4-13T17:32:17Z</time></trkpt>
<trkpt lat="46.587934" lon="6.682510"><ele></ele><time>2014-4-13T17:32:20Z</time></trkpt>
<trkpt lat="46.588117" lon="6.682541"><ele></ele><time>2014-4-13T17:32:23Z</time></trkpt>
<trkpt lat="46.588293" lon="6.682568"><ele></ele><time>2014-4-13T17:32:26Z</time></trkpt>
<trkpt lat="46.588448" lon="6.682597"><ele></ele><time>2014-4-13T17:32:29Z</time></trkpt>
<trkpt lat="46.588584" lon="6.682645"><ele></ele><time>2014-4-13T17:32:32Z</time></trkpt>
<trkpt lat="46.588729" lon="6.682739"><ele></ele><time>2014-4-13T17:32:35Z</time></trkpt>
<trkpt lat="46.588910" lon="6.682897"><ele></ele><time>2014-4-13T17:32:38Z</time></trkpt>
<trkpt lat="46.589069" lon="6.683053"><ele></ele><time>2014-4-13T17:32:41Z</time></trkpt>
<trkpt lat="46.589229" lon="6.683183"><ele></ele><time>2014-4-13T17:32:44Z</time></trkpt>
<trkpt lat="46.589362" lon="6.683261"><ele></ele><time>2014-4-13T17:32:47Z</time></trkpt>
<trkpt lat="46.589504" lon="6.683292"><ele></ele><time>2014-4-13T17:32:50Z</time></trkpt>
<trkpt lat="46.589630" lon="6.683282"><ele></ele><time>2014-4-13T17:32:53Z</time></trkpt>
<trkpt lat="46.589758" lon="6.683273"><ele></ele><time>2014-4-13T17:32:56Z</time></trkpt>
<trkpt lat="46.589938" lon="6.683250"><ele></ele><time>2014-4-13T17:32:59Z</time></trkpt>
<trkpt lat="46.590162" lon="6.683228"><ele></ele><time>2014-4-13T17:33:2Z</time></trkpt>
<trkpt lat="46.590367" lon="6.683212"><ele></ele><time>2014-4-13T17:33:5Z</time></trkpt>
<trkpt lat="46.590514" lon="6.683214"><ele></ele><time>2014-4-13T17:33:8Z</time></trkpt>
<trkpt lat="46.590679" lon="6.683266"><ele></ele><time>2014-4-13T17:33:11Z</time></trkpt>
<trkpt lat="46.590871" lon="6.683349"><ele></ele><time>2014-4-13T17:33:14Z</time></trkpt>
<trkpt lat="46.591013" lon="6.683438"><ele></ele><time>2014-4-13T17:33:17Z</time></trkpt>
<trkpt lat="46.591123" lon="6.683592"><ele></ele><time>2014-4-13T17:33:20Z</time></trkpt>
<trkpt lat="46.591175" lon="6.683788"><ele></ele><time>2014-4-13T17:33:23Z</time></trkpt>
<trkpt lat="46.591160" lon="6.684029"><ele></ele><time>2014-4-13T17:33:26Z</time></trkpt>
<trkpt lat="46.591081" lon="6.684227"><ele></ele><time>2014-4-13T17:33:29Z</time></trkpt>
<trkpt lat="46.590942" lon="6.684352"><ele></ele><time>2014-4-13T17:33:32Z</time></trkpt>
<trkpt lat="46.590771" lon="6.684381"><ele></ele><time>2014-4-13T17:33:35Z</time></trkpt>
<trkpt lat="46.590519" lon="6.684409"><ele></ele><time>2014-4-13T17:33:38Z</time></trkpt>
<trkpt lat="46.590335" lon="6.684424"><ele></ele><time>2014-4-13T17:33:41Z</time></trkpt>
<trkpt lat="46.590045" lon="6.684447"><ele></ele><time>2014-4-13T17:33:44Z</time></trkpt>
<trkpt lat="46.589807" lon="6.684453"><ele></ele><time>2014-4-13T17:33:47Z</time></trkpt>
<trkpt lat="46.589653" lon="6.684446"><ele></ele><time>2014-4-13T17:33:50Z</time></trkpt>
<trkpt lat="46.589402" lon="6.684445"><ele></ele><time>2014-4-13T17:33:53Z</time></trkpt>
<trkpt lat="46.589046" lon="6.684425"><ele></ele><time>2014-4-13T17:33:56Z</time></trkpt>
<trkpt lat="46.588854" lon="6.684396"><ele></ele><time>2014-4-13T17:33:59Z</time></trkpt>
<trkpt lat="46.588543" lon="6.684332"><ele></ele><time>2014-4-13T17:34:2Z</time></trkpt>
<trkpt lat="46.588365" lon="6.684346"><ele></ele><time>2014-4-13T17:34:5Z</time></trkpt>
<trkpt lat="46.588167" lon="6.684353"><ele></ele><time>2014-4-13T17:34:8Z</time></trkpt>
<trkpt lat="46.587992" lon="6.684371"><ele></ele><time>2014-4-13T17:34:11Z</time></trkpt>
<trkpt lat="46.587864" lon="6.684481"><ele></ele><time>2014-4-13T17:34:14Z</time></trkpt>
<trkpt lat="46.587733" lon="6.684722"><ele></ele><time>2014-4-13T17:34:17Z</time></trkpt>
<trkpt lat="46.587678" lon="6.684897"><ele></ele><time>2014-4-13T17:34:20Z</time></trkpt>
<trkpt lat="46.587671" lon="6.685185"><ele></ele><time>2014-4-13T17:34:23Z</time></trkpt>
<trkpt lat="46.587627" lon="6.685453"><ele></ele><time>2014-4-13T17:34:26Z</time></trkpt>
<trkpt lat="46.587585" lon="6.685667"><ele></ele><time>2014-4-13T17:34:29Z</time></trkpt>
<trkpt lat="46.587538" lon="6.685825"><ele></ele><time>2014-4-13T17:34:32Z</time></trkpt>
<trkpt lat="46.587467" lon="6.686023"><ele></ele><time>2014-4-13T17:34:35Z</time></trkpt>
<trkpt lat="46.587383" lon="6.686215"><ele></ele><time>2014-4-13T17:34:38Z</time></trkpt>
<trkpt lat="46.587267" lon="6.686424"><ele></ele><time>2014-4-13T17:34:41Z</time></trkpt>
<trkpt lat="46.587158" lon="6.686511"><ele></ele><time>2014-4-13T17:34:44Z</time></trkpt>
<trkpt lat="46.586980" lon="6.686486"><ele></ele><time>2014-4-13T17:34:47Z</time></trkpt>
<trkpt lat="46.586845" lon="6.686378"><ele></ele><time>2014-4-13T17:34:50Z</time></trkpt>
<trkpt lat="46.586734" lon="6.686211"><ele></ele><time>2014-4-13T17:34:53Z</time></trkpt>
<trkpt lat="46.586640" lon="6.685987"><ele></ele><time>2014-4-13T17:34:56Z</time></trkpt>
<trkpt lat="46.586566" lon="6.685791"><ele></ele><time>2014-4-13T17:34:59Z</time></trkpt>
<trkpt lat="46.586446" lon="6.685611"><ele></ele><time>2014-4-13T17:35:2Z</time></trkpt>
<trkpt lat="46.586249" lon="6.685463"><ele></ele><time>2014-4-13T17:35:5Z</time></trkpt>
<trkpt lat="46.586080" lon="6.685465"><ele></ele><time>2014-4-13T17:35:8Z</time></trkpt>
<trkpt lat="46.585911" lon="6.685487"><ele></ele><time>2014-4-13T17:35:11Z</time></trkpt>
<trkpt lat="46.585762" lon="6.685514"><ele></ele><time>2014-4-13T17:35:14Z</time></trkpt>
<trkpt lat="46.585667" lon="6.685507"><ele></ele><time>2014-4-13T17:35:17Z</time></trkpt>
<trkpt lat="46.585547" lon="6.685512"><ele></ele><time>2014-4-13T17:35:20Z</time></trkpt>
<trkpt lat="46.585316" lon="6.685470"><ele></ele><time>2014-4-13T17:35:23Z</time></trkpt>
<trkpt lat="46.585113" lon="6.685492"><ele></ele><time>2014-4-13T17:35:26Z</time></trkpt>
<trkpt lat="46.584933" lon="6.685530"><ele></ele><time>2014-4-13T17:35:29Z</time></trkpt>
<trkpt lat="46.584682" lon="6.685632"><ele></ele><time>2014-4-13T17:35:32Z</time></trkpt>
<trkpt lat="46.584444" lon="6.685800"><ele></ele><time>2014-4-13T17:35:35Z</time></trkpt>
<trkpt lat="46.584210" lon="6.685964"><ele></ele><time>2014-4-13T17:35:38Z</time></trkpt>
<trkpt lat="46.584008" lon="6.686103"><ele></ele><time>2014-4-13T17:35:41Z</time></trkpt>
<trkpt lat="46.583802" lon="6.686279"><ele></ele><time>2014-4-13T17:35:44Z</time></trkpt>
<trkpt lat="46.583568" lon="6.686496"><ele></ele><time>2014-4-13T17:35:47Z</time></trkpt>
<trkpt lat="46.583369" lon="6.686723"><ele></ele><time>2014-4-13T17:35:50Z</time></trkpt>
<trkpt lat="46.583193" lon="6.686988"><ele></ele><time>2014-4-13T17:35:53Z</time></trkpt>
<trkpt lat="46.583020" lon="6.687257"><ele></ele><time>2014-4-13T17:35:56Z</time></trkpt>
<trkpt lat="46.582875" lon="6.687502"><ele></ele><time>2014-4-13T17:35:59Z</time></trkpt>
<trkpt lat="46.582818" lon="6.687805"><ele></ele><time>2014-4-13T17:36:2Z</time></trkpt>
<trkpt lat="46.582857" lon="6.688169"><ele></ele><time>2014-4-13T17:36:5Z</time></trkpt>
<trkpt lat="46.582866" lon="6.688453"><ele></ele><time>2014-4-13T17:36:8Z</time></trkpt>
<trkpt lat="46.582822" lon="6.688703"><ele></ele><time>2014-4-13T17:36:11Z</time></trkpt>
<trkpt lat="46.582755" lon="6.688972"><ele></ele><time>2014-4-13T17:36:14Z</time></trkpt>
<trkpt lat="46.582702" lon="6.689220"><ele></ele><time>2014-4-13T17:36:17Z</time></trkpt>
<trkpt lat="46.582605" lon="6.689556"><ele></ele><time>2014-4-13T17:36:20Z</time></trkpt>
<trkpt lat="46.582522" lon="6.689865"><ele></ele><time>2014-4-13T17:36:23Z</time></trkpt>
<trkpt lat="46.582449" lon="6.690146"><ele></ele><time>2014-4-13T17:36:26Z</time></trkpt>
<trkpt lat="46.582384" lon="6.690488"><ele></ele><time>2014-4-13T17:36:29Z</time></trkpt>
<trkpt lat="46.582325" lon="6.690781"><ele></ele><time>2014-4-13T17:36:32Z</time></trkpt>
<trkpt lat="46.582237" lon="6.691066"><ele></ele><time>2014-4-13T17:36:35Z</time></trkpt>
<trkpt lat="46.582156" lon="6.691405"><ele></ele><time>2014-4-13T17:36:38Z</time></trkpt>
<trkpt lat="46.582118" lon="6.691545"><ele></ele><time>2014-4-13T17:36:41Z</time></trkpt>
<trkpt lat="46.582127" lon="6.691782"><ele></ele><time>2014-4-13T17:36:44Z</time></trkpt>
<trkpt lat="46.582168" lon="6.691941"><ele></ele><time>2014-4-13T17:36:47Z</time></trkpt>
<trkpt lat="46.582343" lon="6.692271"><ele></ele><time>2014-4-13T17:36:50Z</time></trkpt>
<trkpt lat="46.582589" lon="6.692686"><ele></ele><time>2014-4-13T17:36:53Z</time></trkpt>
<trkpt lat="46.582868" lon="6.693181"><ele></ele><time>2014-4-13T17:36:56Z</time></trkpt>
<trkpt lat="46.582949" lon="6.693326"><ele></ele><time>2014-4-13T17:36:59Z</time></trkpt>
<trkpt lat="46.583014" lon="6.693490"><ele></ele><time>2014-4-13T17:37:2Z</time></trkpt>
<trkpt lat="46.583016" lon="6.693762"><ele></ele><time>2014-4-13T17:37:5Z</time></trkpt>
<trkpt lat="46.582896" lon="6.693965"><ele></ele><time>2014-4-13T17:37:8Z</time></trkpt>
<trkpt lat="46.582843" lon="6.694010"><ele></ele><time>2014-4-13T17:37:11Z</time></trkpt>
<trkpt lat="46.582560" lon="6.694268"><ele></ele><time>2014-4-13T17:37:14Z</time></trkpt>
<trkpt lat="46.582463" lon="6.694441"><ele></ele><time>2014-4-13T17:37:17Z</time></trkpt>
<trkpt lat="46.582386" lon="6.694629"><ele></ele><time>2014-4-13T17:37:20Z</time></trkpt>
<trkpt lat="46.582348" lon="6.694767"><ele></ele><time>2014-4-13T17:37:23Z</time></trkpt>
<trkpt lat="46.582273" lon="6.694968"><ele></ele><time>2014-4-13T17:37:26Z</time></trkpt>
<trkpt lat="46.582063" lon="6.695159"><ele></ele><time>2014-4-13T17:37:29Z</time></trkpt>
<trkpt lat="46.582023" lon="6.695157"><ele></ele><time>2014-4-13T17:37:32Z</time></trkpt>
<trkpt lat="46.581816" lon="6.695022"><ele></ele><time>2014-4-13T17:37:35Z</time></trkpt>
<trkpt lat="46.581708" lon="6.694867"><ele></ele><time>2014-4-13T17:37:38Z</time></trkpt>
<trkpt lat="46.581581" lon="6.694617"><ele></ele><time>2014-4-13T17:37:41Z</time></trkpt>
<trkpt lat="46.581473" lon="6.694422"><ele></ele><time>2014-4-13T17:37:44Z</time></trkpt>
<trkpt lat="46.581371" lon="6.694226"><ele></ele><time>2014-4-13T17:37:47Z</time></trkpt>
<trkpt lat="46.581282" lon="6.694049"><ele></ele><time>2014-4-13T17:37:50Z</time></trkpt>
<trkpt lat="46.581143" lon="6.693813"><ele></ele><time>2014-4-13T17:37:53Z</time></trkpt>
<trkpt lat="46.580952" lon="6.693568"><ele></ele><time>2014-4-13T17:37:56Z</time></trkpt>
<trkpt lat="46.580745" lon="6.693392"><ele></ele><time>2014-4-13T17:37:59Z</time></trkpt>
<trkpt lat="46.580437" lon="6.693247"><ele></ele><time>2014-4-13T17:38:2Z</time></trkpt>
<trkpt lat="46.580241" lon="6.693178"><ele></ele><time>2014-4-13T17:38:5Z</time></trkpt>
<trkpt lat="46.580086" lon="6.693159"><ele></ele><time>2014-4-13T17:38:8Z</time></trkpt>
<trkpt lat="46.579870" lon="6.693101"><ele></ele><time>2014-4-13T17:38:11Z</time></trkpt>
<trkpt lat="46.579656" lon="6.693046"><ele></ele><time>2014-4-13T17:38:14Z</time></trkpt>
<trkpt lat="46.579471" lon="6.692990"><ele></ele><time>2014-4-13T17:38:17Z</time></trkpt>
<trkpt lat="46.579236" lon="6.692933"><ele></ele><time>2014-4-13T17:38:20Z</time></trkpt>
<trkpt lat="46.579070" lon="6.692930"><ele></ele><time>2014-4-13T17:38:23Z</time></trkpt>
<trkpt lat="46.578916" lon="6.692943"><ele></ele><time>2014-4-13T17:38:26Z</time></trkpt>
<trkpt lat="46.578747" lon="6.693004"><ele></ele><time>2014-4-13T17:38:29Z</time></trkpt>
<trkpt lat="46.578588" lon="6.693100"><ele></ele><time>2014-4-13T17:38:32Z</time></trkpt>
<trkpt lat="46.578439" lon="6.693215"><ele></ele><time>2014-4-13T17:38:35Z</time></trkpt>
<trkpt lat="46.578303" lon="6.693309"><ele></ele><time>2014-4-13T17:38:38Z</time></trkpt>
<trkpt lat="46.578131" lon="6.693392"><ele></ele><time>2014-4-13T17:38:41Z</time></trkpt>
<trkpt lat="46.578006" lon="6.693449"><ele></ele><time>2014-4-13T17:38:44Z</time></trkpt>
<trkpt lat="46.577792" lon="6.693537"><ele></ele><time>2014-4-13T17:38:47Z</time></trkpt>
<trkpt lat="46.577648" lon="6.693591"><ele></ele><time>2014-4-13T17:38:50Z</time></trkpt>
<trkpt lat="46.577507" lon="6.693583"><ele></ele><time>2014-4-13T17:38:53Z</time></trkpt>
<trkpt lat="46.577284" lon="6.693535"><ele></ele><time>2014-4-13T17:38:56Z</time></trkpt>
<trkpt lat="46.577160" lon="6.693447"><ele></ele><time>2014-4-13T17:38:59Z</time></trkpt>
<trkpt lat="46.577152" lon="6.693400"><ele></ele><time>2014-4-13T17:39:2Z</time></trkpt>
<trkpt lat="46.577157" lon="6.693286"><ele></ele><time>2014-4-13T17:39:5Z</time></trkpt>
<trkpt lat="46.577211" lon="6.693167"><ele></ele><time>2014-4-13T17:39:8Z</time></trkpt>
<trkpt lat="46.577342" lon="6.692811"><ele></ele><time>2014-4-13T17:39:11Z</time></trkpt>
<trkpt lat="46.577353" lon="6.692696"><ele></ele><time>2014-4-13T17:39:14Z</time></trkpt>
<trkpt lat="46.577320" lon="6.692307"><ele></ele><time>2014-4-13T17:39:17Z</time></trkpt>
<trkpt lat="46.577148" lon="6.692018"><ele></ele><time>2014-4-13T17:39:20Z</time></trkpt>
<trkpt lat="46.576914" lon="6.691877"><ele></ele><time>2014-4-13T17:39:23Z</time></trkpt>
<trkpt lat="46.576588" lon="6.691775"><ele></ele><time>2014-4-13T17:39:26Z</time></trkpt>
<trkpt lat="46.576361" lon="6.691606"><ele></ele><time>2014-4-13T17:39:29Z</time></trkpt>
<trkpt lat="46.576316" lon="6.691533"><ele></ele><time>2014-4-13T17:39:32Z</time></trkpt>
<trkpt lat="46.576195" lon="6.691243"><ele></ele><time>2014-4-13T17:39:35Z</time></trkpt>
<trkpt lat="46.576085" lon="6.691095"><ele></ele><time>2014-4-13T17:39:38Z</time></trkpt>
<trkpt lat="46.575899" lon="6.690940"><ele></ele><time>2014-4-13T17:39:41Z</time></trkpt>
<trkpt lat="46.575800" lon="6.690836"><ele></ele><time>2014-4-13T17:39:44Z</time></trkpt>
<trkpt lat="46.575632" lon="6.690746"><ele></ele><time>2014-4-13T17:39:47Z</time></trkpt>
<trkpt lat="46.575383" lon="6.690708"><ele></ele><time>2014-4-13T17:39:50Z</time></trkpt>
<trkpt lat="46.575265" lon="6.690696"><ele></ele><time>2014-4-13T17:39:53Z</time></trkpt>
<trkpt lat="46.575149" lon="6.690684"><ele></ele><time>2014-4-13T17:39:56Z</time></trkpt>
<trkpt lat="46.574991" lon="6.690652"><ele></ele><time>2014-4-13T17:39:59Z</time></trkpt>
<trkpt lat="46.574822" lon="6.690627"><ele></ele><time>2014-4-13T17:40:2Z</time></trkpt>
<trkpt lat="46.574682" lon="6.690585"><ele></ele><time>2014-4-13T17:40:5Z</time></trkpt>
<trkpt lat="46.574616" lon="6.690586"><ele></ele><time>2014-4-13T17:40:8Z</time></trkpt>
<trkpt lat="46.574458" lon="6.690729"><ele></ele><time>2014-4-13T17:40:11Z</time></trkpt>
<trkpt lat="46.574474" lon="6.690723"><ele></ele><time>2014-4-13T17:40:14Z</time></trkpt>
<trkpt lat="46.574442" lon="6.690617"><ele></ele><time>2014-4-13T17:40:17Z</time></trkpt>
<trkpt lat="46.574382" lon="6.690563"><ele></ele><time>2014-4-13T17:40:20Z</time></trkpt>
<trkpt lat="46.574334" lon="6.690543"><ele></ele><time>2014-4-13T17:40:23Z</time></trkpt>
<trkpt lat="46.574241" lon="6.690542"><ele></ele><time>2014-4-13T17:40:26Z</time></trkpt>
<trkpt lat="46.574233" lon="6.690549"><ele></ele><time>2014-4-13T17:40:29Z</time></trkpt>
<trkpt lat="46.574161" lon="6.690553"><ele></ele><time>2014-4-13T17:40:32Z</time></trkpt>
<trkpt lat="46.574136" lon="6.690557"><ele></ele><time>2014-4-13T17:40:35Z</time></trkpt>
<trkpt lat="46.574097" lon="6.690567"><ele></ele><time>2014-4-13T17:40:38Z</time></trkpt>
<trkpt lat="46.574028" lon="6.690549"><ele></ele><time>2014-4-13T17:40:41Z</time></trkpt>
<trkpt lat="46.573989" lon="6.690555"><ele></ele><time>2014-4-13T17:40:44Z</time></trkpt>
<trkpt lat="46.573892" lon="6.690616"><ele></ele><time>2014-4-13T17:40:47Z</time></trkpt>
<trkpt lat="46.573810" lon="6.690667"><ele></ele><time>2014-4-13T17:40:50Z</time></trkpt>
<trkpt lat="46.573717" lon="6.690753"><ele></ele><time>2014-4-13T17:40:53Z</time></trkpt>
<trkpt lat="46.573592" lon="6.690845"><ele></ele><time>2014-4-13T17:40:56Z</time></trkpt>
<trkpt lat="46.573544" lon="6.690852"><ele></ele><time>2014-4-13T17:40:59Z</time></trkpt>
<trkpt lat="46.573451" lon="6.690910"><ele></ele><time>2014-4-13T17:41:2Z</time></trkpt>
<trkpt lat="46.573333" lon="6.690981"><ele></ele><time>2014-4-13T17:41:5Z</time></trkpt>
<trkpt lat="46.573343" lon="6.691035"><ele></ele><time>2014-4-13T17:41:8Z</time></trkpt>
<trkpt lat="46.573495" lon="6.691106"><ele></ele><time>2014-4-13T17:41:11Z</time></trkpt>
<trkpt lat="46.573683" lon="6.691181"><ele></ele><time>2014-4-13T17:41:14Z</time></trkpt>
<trkpt lat="46.573902" lon="6.691338"><ele></ele><time>2014-4-13T17:41:17Z</time></trkpt>
<trkpt lat="46.574031" lon="6.691506"><ele></ele><time>2014-4-13T17:41:20Z</time></trkpt>
<trkpt lat="46.574119" lon="6.691638"><ele></ele><time>2014-4-13T17:41:23Z</time></trkpt>
<trkpt lat="46.574236" lon="6.691834"><ele></ele><time>2014-4-13T17:41:26Z</time></trkpt>
<trkpt lat="46.574300" lon="6.691970"><ele></ele><time>2014-4-13T17:41:29Z</time></trkpt>
<trkpt lat="46.574378" lon="6.692120"><ele></ele><time>2014-4-13T17:41:32Z</time></trkpt>
<trkpt lat="46.574449" lon="6.692289"><ele></ele><time>2014-4-13T17:41:35Z</time></trkpt>
<trkpt lat="46.574431" lon="6.692481"><ele></ele><time>2014-4-13T17:41:38Z</time></trkpt>
<trkpt lat="46.574335" lon="6.692783"><ele></ele><time>2014-4-13T17:41:41Z</time></trkpt>
<trkpt lat="46.574192" lon="6.692944"><ele></ele><time>2014-4-13T17:41:44Z</time></trkpt>
<trkpt lat="46.574028" lon="6.693056"><ele></ele><time>2014-4-13T17:41:47Z</time></trkpt>
<trkpt lat="46.573908" lon="6.693169"><ele></ele><time>2014-4-13T17:41:50Z</time></trkpt>
<trkpt lat="46.573865" lon="6.693274"><ele></ele><time>2014-4-13T17:41:53Z</time></trkpt>
<trkpt lat="46.573739" lon="6.693369"><ele></ele><time>2014-4-13T17:41:56Z</time></trkpt>
<trkpt lat="46.573601" lon="6.693383"><ele></ele><time>2014-4-13T17:41:59Z</time></trkpt>
<trkpt lat="46.573532" lon="6.693311"><ele></ele><time>2014-4-13T17:42:2Z</time></trkpt>
<trkpt lat="46.573377" lon="6.693203"><ele></ele><time>2014-4-13T17:42:5Z</time></trkpt>
<trkpt lat="46.573246" lon="6.693146"><ele></ele><time>2014-4-13T17:42:8Z</time></trkpt>
<trkpt lat="46.573106" lon="6.693110"><ele></ele><time>2014-4-13T17:42:11Z</time></trkpt>
<trkpt lat="46.572990" lon="6.693051"><ele></ele><time>2014-4-13T17:42:14Z</time></trkpt>
<trkpt lat="46.572782" lon="6.692997"><ele></ele><time>2014-4-13T17:42:17Z</time></trkpt>
<trkpt lat="46.572636" lon="6.692971"><ele></ele><time>2014-4-13T17:42:20Z</time></trkpt>
<trkpt lat="46.572460" lon="6.692971"><ele></ele><time>2014-4-13T17:42:23Z</time></trkpt>
<trkpt lat="46.572275" lon="6.692960"><ele></ele><time>2014-4-13T17:42:26Z</time></trkpt>
<trkpt lat="46.572041" lon="6.692928"><ele></ele><time>2014-4-13T17:42:29Z</time></trkpt>
<trkpt lat="46.571888" lon="6.692923"><ele></ele><time>2014-4-13T17:42:32Z</time></trkpt>
<trkpt lat="46.571655" lon="6.692866"><ele></ele><time>2014-4-13T17:42:35Z</time></trkpt>
<trkpt lat="46.571400" lon="6.692819"><ele></ele><time>2014-4-13T17:42:38Z</time></trkpt>
<trkpt lat="46.571113" lon="6.692762"><ele></ele><time>2014-4-13T17:42:41Z</time></trkpt>
<trkpt lat="46.571034" lon="6.692770"><ele></ele><time>2014-4-13T17:42:44Z</time></trkpt>
<trkpt lat="46.570874" lon="6.692953"><ele></ele><time>2014-4-13T17:42:47Z</time></trkpt>
<trkpt lat="46.570860" lon="6.692998"><ele></ele><time>2014-4-13T17:42:50Z</time></trkpt>
<trkpt lat="46.570826" lon="6.693317"><ele></ele><time>2014-4-13T17:42:53Z</time></trkpt>
<trkpt lat="46.570788" lon="6.693612"><ele></ele><time>2014-4-13T17:42:56Z</time></trkpt>
<trkpt lat="46.570615" lon="6.693719"><ele></ele><time>2014-4-13T17:42:59Z</time></trkpt>
<trkpt lat="46.570575" lon="6.693717"><ele></ele><time>2014-4-13T17:43:2Z</time></trkpt>
<trkpt lat="46.570411" lon="6.693722"><ele></ele><time>2014-4-13T17:43:5Z</time></trkpt>
<trkpt lat="46.570179" lon="6.693712"><ele></ele><time>2014-4-13T17:43:8Z</time></trkpt>
<trkpt lat="46.569974" lon="6.693703"><ele></ele><time>2014-4-13T17:43:11Z</time></trkpt>
<trkpt lat="46.569807" lon="6.693703"><ele></ele><time>2014-4-13T17:43:14Z</time></trkpt>
<trkpt lat="46.569635" lon="6.693716"><ele></ele><time>2014-4-13T17:43:17Z</time></trkpt>
<trkpt lat="46.569591" lon="6.693715"><ele></ele><time>2014-4-13T17:43:20Z</time></trkpt>
<trkpt lat="46.569261" lon="6.693670"><ele></ele><time>2014-4-13T17:43:23Z</time></trkpt>
<trkpt lat="46.568948" lon="6.693544"><ele></ele><time>2014-4-13T17:43:26Z</time></trkpt>
<trkpt lat="46.568528" lon="6.693367"><ele></ele><time>2014-4-13T17:43:29Z</time></trkpt>
<trkpt lat="46.568459" lon="6.693339"><ele></ele><time>2014-4-13T17:43:32Z</time></trkpt>
<trkpt lat="46.568032" lon="6.693172"><ele></ele><time>2014-4-13T17:43:35Z</time></trkpt>
<trkpt lat="46.567778" lon="6.693161"><ele></ele><time>2014-4-13T17:43:38Z</time></trkpt>
<trkpt lat="46.567427" lon="6.693289"><ele></ele><time>2014-4-13T17:43:41Z</time></trkpt>
<trkpt lat="46.567138" lon="6.693441"><ele></ele><time>2014-4-13T17:43:44Z</time></trkpt>
<trkpt lat="46.566936" lon="6.693493"><ele></ele><time>2014-4-13T17:43:47Z</time></trkpt>
<trkpt lat="46.566865" lon="6.693561"><ele></ele><time>2014-4-13T17:43:50Z</time></trkpt>
<trkpt lat="46.566838" lon="6.693567"><ele></ele><time>2014-4-13T17:43:53Z</time></trkpt>
<trkpt lat="46.566793" lon="6.693580"><ele></ele><time>2014-4-13T17:43:56Z</time></trkpt>
<trkpt lat="46.566746" lon="6.693582"><ele></ele><time>2014-4-13T17:43:59Z</time></trkpt>
<trkpt lat="46.566681" lon="6.693696"><ele></ele><time>2014-4-13T17:44:2Z</time></trkpt>
<trkpt lat="46.566616" lon="6.693696"><ele></ele><time>2014-4-13T17:44:5Z</time></trkpt>
<trkpt lat="46.566580" lon="6.693667"><ele></ele><time>2014-4-13T17:44:8Z</time></trkpt>
<trkpt lat="46.566258" lon="6.693374"><ele></ele><time>2014-4-13T17:44:11Z</time></trkpt>
<trkpt lat="46.565950" lon="6.693176"><ele></ele><time>2014-4-13T17:44:14Z</time></trkpt>
<trkpt lat="46.565811" lon="6.693107"><ele></ele><time>2014-4-13T17:44:17Z</time></trkpt>
<trkpt lat="46.565699" lon="6.692914"><ele></ele><time>2014-4-13T17:44:20Z</time></trkpt>
<trkpt lat="46.565665" lon="6.692760"><ele></ele><time>2014-4-13T17:44:23Z</time></trkpt>
<trkpt lat="46.565497" lon="6.692271"><ele></ele><time>2014-4-13T17:44:26Z</time></trkpt>
<trkpt lat="46.565424" lon="6.692036"><ele></ele><time>2014-4-13T17:44:29Z</time></trkpt>
<trkpt lat="46.565214" lon="6.691638"><ele></ele><time>2014-4-13T17:44:32Z</time></trkpt>
<trkpt lat="46.565025" lon="6.691191"><ele></ele><time>2014-4-13T17:44:35Z</time></trkpt>
<trkpt lat="46.564734" lon="6.690297"><ele></ele><time>2014-4-13T17:44:38Z</time></trkpt>
<trkpt lat="46.564637" lon="6.689881"><ele></ele><time>2014-4-13T17:44:41Z</time></trkpt>
<trkpt lat="46.564552" lon="6.689730"><ele></ele><time>2014-4-13T17:44:44Z</time></trkpt>
<trkpt lat="46.564530" lon="6.689663"><ele></ele><time>2014-4-13T17:44:47Z</time></trkpt>
<trkpt lat="46.564531" lon="6.689663"><ele></ele><time>2014-4-13T17:44:50Z</time></trkpt>
</trkseg></trk></gpx>